sensor_id;sensor_type;location;lat;lon;timestamp;pressure;altitude;pressure_sealevel;temperature;humidity
25238;BME280;13185;50.872;5.306;2023-02-04T00:00:52;102946.00;;;8.55;100.00
25238;BME280;13185;50.872;5.306;2023-02-04T00:03:18;102947.84;;;8.52;100.00
25238;BME280;13185;50.872;5.306;2023-02-04T00:05:43;102941.72;;;8.47;100.00
25238;BME280;13185;50.872;5.306;2023-02-04T00:08:11;102947.19;;;8.41;100.00
25238;BME280;13185;50.872;5.306;2023-02-04T00:10:36;102950.78;;;8.39;100.00
25238;BME280;13185;50.872;5.306;2023-02-04T00:13:03;102954.47;;;8.35;100.00
25238;BME280;13185;50.872;5.306;2023-02-04T00:15:29;102958.06;;;8.34;100.00
25238;BME280;13185;50.872;5.306;2023-02-04T00:17:55;102952.78;;;8.28;100.00
25238;BME280;13185;50.872;5.306;2023-02-04T00:20:21;102954.59;;;8.28;100.00
25238;BME280;13185;50.872;5.306;2023-02-04T00:22:47;102960.84;;;8.27;100.00
25238;BME280;13185;50.872;5.306;2023-02-04T00:25:13;102964.41;;;8.27;100.00
25238;BME280;13185;50.872;5.306;2023-02-04T00:27:40;102963.50;;;8.28;100.00
25238;BME280;13185;50.872;5.306;2023-02-04T00:30:06;102971.56;;;8.27;100.00
25238;BME280;13185;50.872;5.306;2023-02-04T00:32:32;102959.13;;;8.24;100.00
25238;BME280;13185;50.872;5.306;2023-02-04T00:34:58;102969.00;;;8.21;100.00
25238;BME280;13185;50.872;5.306;2023-02-04T00:37:24;102961.09;;;8.16;100.00
25238;BME280;13185;50.872;5.306;2023-02-04T00:39:49;102965.59;;;8.14;100.00
25238;BME280;13185;50.872;5.306;2023-02-04T00:42:15;102975.41;;;8.12;100.00
25238;BME280;13185;50.872;5.306;2023-02-04T00:44:41;102974.59;;;8.08;100.00
25238;BME280;13185;50.872;5.306;2023-02-04T00:47:07;102972.03;;;8.04;100.00
25238;BME280;13185;50.872;5.306;2023-02-04T00:49:34;102974.75;;;8.02;100.00
25238;BME280;13185;50.872;5.306;2023-02-04T00:52:00;102982.84;;;7.98;100.00
25238;BME280;13185;50.872;5.306;2023-02-04T00:54:26;102997.13;;;7.97;100.00
25238;BME280;13185;50.872;5.306;2023-02-04T00:56:51;102999.91;;;7.92;100.00
25238;BME280;13185;50.872;5.306;2023-02-04T00:59:17;102990.09;;;7.91;100.00
25238;BME280;13185;50.872;5.306;2023-02-04T01:01:43;102993.66;;;7.90;100.00
25238;BME280;13185;50.872;5.306;2023-02-04T01:04:08;102998.13;;;7.90;100.00
25238;BME280;13185;50.872;5.306;2023-02-04T01:06:34;102999.06;;;7.89;100.00
25238;BME280;13185;50.872;5.306;2023-02-04T01:09:00;103000.84;;;7.88;100.00
25238;BME280;13185;50.872;5.306;2023-02-04T01:11:26;103001.69;;;7.90;100.00
25238;BME280;13185;50.872;5.306;2023-02-04T01:13:53;103008.84;;;7.88;100.00
25238;BME280;13185;50.872;5.306;2023-02-04T01:16:19;103001.78;;;7.86;100.00
25238;BME280;13185;50.872;5.306;2023-02-04T01:18:44;103008.94;;;7.85;100.00
25238;BME280;13185;50.872;5.306;2023-02-04T01:21:10;103005.44;;;7.80;100.00
25238;BME280;13185;50.872;5.306;2023-02-04T01:23:35;103007.28;;;7.78;100.00
25238;BME280;13185;50.872;5.306;2023-02-04T01:26:01;103013.50;;;7.78;100.00
25238;BME280;13185;50.872;5.306;2023-02-04T01:28:27;103011.72;;;7.77;100.00
25238;BME280;13185;50.872;5.306;2023-02-04T01:30:52;103020.66;;;7.76;100.00
25238;BME280;13185;50.872;5.306;2023-02-04T01:33:22;103016.22;;;7.75;100.00
25238;BME280;13185;50.872;5.306;2023-02-04T01:35:49;103018.09;;;7.72;100.00
25238;BME280;13185;50.872;5.306;2023-02-04T01:38:14;103016.34;;;7.69;100.00
25238;BME280;13185;50.872;5.306;2023-02-04T01:40:40;103013.66;;;7.69;100.00
25238;BME280;13185;50.872;5.306;2023-02-04T01:43:06;103019.91;;;7.68;100.00
25238;BME280;13185;50.872;5.306;2023-02-04T01:45:32;103012.84;;;7.66;100.00
25238;BME280;13185;50.872;5.306;2023-02-04T01:48:01;103009.31;;;7.65;100.00
25238;BME280;13185;50.872;5.306;2023-02-04T01:50:28;103006.66;;;7.64;100.00
25238;BME280;13185;50.872;5.306;2023-02-04T01:52:54;103009.38;;;7.62;100.00
25238;BME280;13185;50.872;5.306;2023-02-04T01:55:24;103011.13;;;7.63;100.00
25238;BME280;13185;50.872;5.306;2023-02-04T01:57:50;103004.03;;;7.61;100.00
25238;BME280;13185;50.872;5.306;2023-02-04T02:00:31;103009.41;;;7.59;100.00
25238;BME280;13185;50.872;5.306;2023-02-04T02:02:58;103007.59;;;7.60;100.00
25238;BME280;13185;50.872;5.306;2023-02-04T02:05:49;103000.47;;;7.60;100.00
25238;BME280;13185;50.872;5.306;2023-02-04T02:08:13;103008.47;;;7.62;100.00
25238;BME280;13185;50.872;5.306;2023-02-04T02:10:42;103007.59;;;7.61;100.00
25238;BME280;13185;50.872;5.306;2023-02-04T02:13:11;103001.34;;;7.61;100.00
25238;BME280;13185;50.872;5.306;2023-02-04T02:15:38;102999.59;;;7.60;100.00
25238;BME280;13185;50.872;5.306;2023-02-04T02:18:04;103008.47;;;7.60;100.00
25238;BME280;13185;50.872;5.306;2023-02-04T02:20:30;103004.94;;;7.60;100.00
25238;BME280;13185;50.872;5.306;2023-02-04T02:25:43;103005.00;;;7.57;100.00
25238;BME280;13185;50.872;5.306;2023-02-04T02:28:11;103001.44;;;7.56;100.00
25238;BME280;13185;50.872;5.306;2023-02-04T02:30:38;103011.28;;;7.54;100.00
25238;BME280;13185;50.872;5.306;2023-02-04T02:33:04;103000.63;;;7.52;100.00
25238;BME280;13185;50.872;5.306;2023-02-04T02:35:31;103001.56;;;7.51;100.00
25238;BME280;13185;50.872;5.306;2023-02-04T02:37:56;103002.47;;;7.50;100.00
25238;BME280;13185;50.872;5.306;2023-02-04T02:40:22;103001.59;;;7.48;100.00
25238;BME280;13185;50.872;5.306;2023-02-04T02:42:50;103011.38;;;7.48;100.00
25238;BME280;13185;50.872;5.306;2023-02-04T02:45:24;103005.19;;;7.46;100.00
25238;BME280;13185;50.872;5.306;2023-02-04T02:47:51;103006.09;;;7.45;100.00
25238;BME280;13185;50.872;5.306;2023-02-04T02:50:20;103006.13;;;7.43;100.00
25238;BME280;13185;50.872;5.306;2023-02-04T02:52:47;103012.34;;;7.44;100.00
25238;BME280;13185;50.872;5.306;2023-02-04T02:55:17;103016.81;;;7.43;100.00
25238;BME280;13185;50.872;5.306;2023-02-04T02:57:44;103007.97;;;7.41;100.00
25238;BME280;13185;50.872;5.306;2023-02-04T03:03:00;103014.16;;;7.43;100.00
25238;BME280;13185;50.872;5.306;2023-02-04T03:05:29;103020.34;;;7.45;100.00
25238;BME280;13185;50.872;5.306;2023-02-04T03:07:57;103018.53;;;7.46;100.00
25238;BME280;13185;50.872;5.306;2023-02-04T03:10:22;103023.00;;;7.45;100.00
25238;BME280;13185;50.872;5.306;2023-02-04T03:12:49;103026.53;;;7.47;100.00
25238;BME280;13185;50.872;5.306;2023-02-04T03:15:15;103030.97;;;7.47;100.00
25238;BME280;13185;50.872;5.306;2023-02-04T03:17:42;103041.66;;;7.47;100.00
25238;BME280;13185;50.872;5.306;2023-02-04T03:20:09;103044.31;;;7.48;100.00
25238;BME280;13185;50.872;5.306;2023-02-04T03:22:35;103056.75;;;7.51;100.00
25238;BME280;13185;50.872;5.306;2023-02-04T03:25:01;103049.59;;;7.51;100.00
25238;BME280;13185;50.872;5.306;2023-02-04T03:27:27;103046.06;;;7.51;100.00
25238;BME280;13185;50.872;5.306;2023-02-04T03:29:53;103042.50;;;7.50;100.00
25238;BME280;13185;50.872;5.306;2023-02-04T03:32:18;103046.94;;;7.50;100.00
25238;BME280;13185;50.872;5.306;2023-02-04T03:34:44;103046.94;;;7.50;100.00
25238;BME280;13185;50.872;5.306;2023-02-04T03:37:09;103054.13;;;7.46;100.00
25238;BME280;13185;50.872;5.306;2023-02-04T03:39:35;103052.38;;;7.45;100.00
25238;BME280;13185;50.872;5.306;2023-02-04T03:42:00;103054.19;;;7.43;100.00
25238;BME280;13185;50.872;5.306;2023-02-04T03:44:26;103061.31;;;7.43;100.00
25238;BME280;13185;50.872;5.306;2023-02-04T03:46:52;103064.94;;;7.40;100.00
25238;BME280;13185;50.872;5.306;2023-02-04T03:49:23;103064.03;;;7.40;100.00
25238;BME280;13185;50.872;5.306;2023-02-04T03:51:49;103079.16;;;7.41;100.00
25238;BME280;13185;50.872;5.306;2023-02-04T03:54:14;103079.16;;;7.41;100.00
25238;BME280;13185;50.872;5.306;2023-02-04T03:56:40;103079.16;;;7.41;100.00
25238;BME280;13185;50.872;5.306;2023-02-04T03:59:05;103075.59;;;7.39;100.00
25238;BME280;13185;50.872;5.306;2023-02-04T04:01:31;103081.81;;;7.39;100.00
25238;BME280;13185;50.872;5.306;2023-02-04T04:03:56;103083.63;;;7.39;100.00
25238;BME280;13185;50.872;5.306;2023-02-04T04:06:22;103083.63;;;7.39;100.00
25238;BME280;13185;50.872;5.306;2023-02-04T04:08:47;103089.00;;;7.36;100.00
25238;BME280;13185;50.872;5.306;2023-02-04T04:11:13;103089.00;;;7.36;100.00
25238;BME280;13185;50.872;5.306;2023-02-04T04:13:38;103093.50;;;7.34;100.00
25238;BME280;13185;50.872;5.306;2023-02-04T04:16:04;103095.25;;;7.35;100.00
25238;BME280;13185;50.872;5.306;2023-02-04T04:18:30;103095.28;;;7.33;100.00
25238;BME280;13185;50.872;5.306;2023-02-04T04:20:57;103097.09;;;7.33;100.00
25238;BME280;13185;50.872;5.306;2023-02-04T04:23:23;103090.88;;;7.32;100.00
25238;BME280;13185;50.872;5.306;2023-02-04T04:25:48;103098.03;;;7.30;100.00
25238;BME280;13185;50.872;5.306;2023-02-04T04:28:14;103095.34;;;7.29;100.00
25238;BME280;13185;50.872;5.306;2023-02-04T04:30:39;103094.50;;;7.27;100.00
25238;BME280;13185;50.872;5.306;2023-02-04T04:33:05;103104.31;;;7.24;100.00
25238;BME280;13185;50.872;5.306;2023-02-04T04:35:30;103100.78;;;7.24;100.00
25238;BME280;13185;50.872;5.306;2023-02-04T04:37:56;103096.41;;;7.20;100.00
25238;BME280;13185;50.872;5.306;2023-02-04T04:40:21;103096.41;;;7.17;100.00
25238;BME280;13185;50.872;5.306;2023-02-04T04:42:47;103114.25;;;7.15;100.00
25238;BME280;13185;50.872;5.306;2023-02-04T04:45:12;103102.75;;;7.11;100.00
25238;BME280;13185;50.872;5.306;2023-02-04T04:47:38;103103.69;;;7.09;100.00
25238;BME280;13185;50.872;5.306;2023-02-04T04:50:04;103119.69;;;7.07;100.00
25238;BME280;13185;50.872;5.306;2023-02-04T04:52:30;103111.78;;;7.01;100.00
25238;BME280;13185;50.872;5.306;2023-02-04T04:54:55;103108.25;;;7.01;100.00
25238;BME280;13185;50.872;5.306;2023-02-04T04:57:21;103113.63;;;6.96;100.00
25238;BME280;13185;50.872;5.306;2023-02-04T04:59:46;103110.16;;;6.91;100.00
25238;BME280;13185;50.872;5.306;2023-02-04T05:02:12;103111.09;;;6.88;100.00
25238;BME280;13185;50.872;5.306;2023-02-04T05:04:37;103108.41;;;6.88;100.00
25238;BME280;13185;50.872;5.306;2023-02-04T05:07:02;103101.31;;;6.86;100.00
25238;BME280;13185;50.872;5.306;2023-02-04T05:09:28;103102.25;;;6.83;100.00
25238;BME280;13185;50.872;5.306;2023-02-04T05:11:54;103118.28;;;6.80;100.00
25238;BME280;13185;50.872;5.306;2023-02-04T05:14:20;103120.09;;;6.77;100.00
25238;BME280;13185;50.872;5.306;2023-02-04T05:16:46;103122.75;;;6.77;100.00
25238;BME280;13185;50.872;5.306;2023-02-04T05:19:11;103126.31;;;6.79;100.00
25238;BME280;13185;50.872;5.306;2023-02-04T05:21:36;103118.31;;;6.79;100.00
25238;BME280;13185;50.872;5.306;2023-02-04T05:24:02;103119.19;;;6.79;100.00
25238;BME280;13185;50.872;5.306;2023-02-04T05:26:27;103112.97;;;6.77;100.00
25238;BME280;13185;50.872;5.306;2023-02-04T05:28:53;103120.97;;;6.77;100.00
25238;BME280;13185;50.872;5.306;2023-02-04T05:31:21;103118.34;;;6.76;100.00
25238;BME280;13185;50.872;5.306;2023-02-04T05:33:46;103126.31;;;6.77;100.00
25238;BME280;13185;50.872;5.306;2023-02-04T05:36:12;103122.75;;;6.77;100.00
25238;BME280;13185;50.872;5.306;2023-02-04T05:38:39;103128.13;;;6.75;100.00
25238;BME280;13185;50.872;5.306;2023-02-04T05:41:05;103127.22;;;6.76;100.00
25238;BME280;13185;50.872;5.306;2023-02-04T05:43:30;103127.22;;;6.76;100.00
25238;BME280;13185;50.872;5.306;2023-02-04T05:45:55;103126.34;;;6.76;100.00
25238;BME280;13185;50.872;5.306;2023-02-04T05:48:21;103136.97;;;6.77;100.00
25238;BME280;13185;50.872;5.306;2023-02-04T05:50:47;103129.91;;;6.78;100.00
25238;BME280;13185;50.872;5.306;2023-02-04T05:53:12;103140.53;;;6.79;100.00
25238;BME280;13185;50.872;5.306;2023-02-04T05:55:38;103137.00;;;6.79;100.00
25238;BME280;13185;50.872;5.306;2023-02-04T05:58:03;103134.31;;;6.77;100.00
25238;BME280;13185;50.872;5.306;2023-02-04T06:00:29;103141.44;;;6.78;100.00
25238;BME280;13185;50.872;5.306;2023-02-04T06:02:54;103149.44;;;6.77;100.00
25238;BME280;13185;50.872;5.306;2023-02-04T06:05:20;103147.69;;;6.76;100.00
25238;BME280;13185;50.872;5.306;2023-02-04T06:07:47;103148.56;;;6.76;100.00
25238;BME280;13185;50.872;5.306;2023-02-04T06:10:12;103154.78;;;6.78;100.00
25238;BME280;13185;50.872;5.306;2023-02-04T06:12:38;103163.63;;;6.80;100.00
25238;BME280;13185;50.872;5.306;2023-02-04T06:15:04;103153.81;;;6.82;100.00
25238;BME280;13185;50.872;5.306;2023-02-04T06:17:29;103161.84;;;6.81;100.00
25238;BME280;13185;50.872;5.306;2023-02-04T06:19:55;103164.53;;;6.81;100.00
25238;BME280;13185;50.872;5.306;2023-02-04T06:22:20;103157.44;;;6.80;100.00
25238;BME280;13185;50.872;5.306;2023-02-04T06:24:48;103164.56;;;6.76;100.00
25238;BME280;13185;50.872;5.306;2023-02-04T06:27:14;103163.69;;;6.74;100.00
25238;BME280;13185;50.872;5.306;2023-02-04T06:29:42;103167.25;;;6.75;100.00
25238;BME280;13185;50.872;5.306;2023-02-04T06:32:08;103161.97;;;6.72;100.00
25238;BME280;13185;50.872;5.306;2023-02-04T06:34:33;103171.69;;;6.74;100.00
25238;BME280;13185;50.872;5.306;2023-02-04T06:36:59;103174.38;;;6.73;100.00
25238;BME280;13185;50.872;5.306;2023-02-04T06:39:24;103172.59;;;6.73;100.00
25238;BME280;13185;50.872;5.306;2023-02-04T06:41:50;103177.06;;;6.73;100.00
25238;BME280;13185;50.872;5.306;2023-02-04T06:44:15;103177.91;;;6.75;100.00
25238;BME280;13185;50.872;5.306;2023-02-04T06:46:43;103182.34;;;6.76;100.00
25238;BME280;13185;50.872;5.306;2023-02-04T06:49:08;103180.56;;;6.76;100.00
25238;BME280;13185;50.872;5.306;2023-02-04T06:51:33;103181.47;;;6.75;100.00
25238;BME280;13185;50.872;5.306;2023-02-04T06:53:59;103179.69;;;6.74;100.00
25238;BME280;13185;50.872;5.306;2023-02-04T06:56:24;103181.50;;;6.72;100.00
25238;BME280;13185;50.872;5.306;2023-02-04T06:58:53;103185.09;;;6.70;100.00
25238;BME280;13185;50.872;5.306;2023-02-04T07:01:18;103177.13;;;6.66;100.00
25238;BME280;13185;50.872;5.306;2023-02-04T07:03:44;103177.16;;;6.63;100.00
25238;BME280;13185;50.872;5.306;2023-02-04T07:06:09;103178.09;;;6.61;100.00
25238;BME280;13185;50.872;5.306;2023-02-04T07:08:35;103178.97;;;6.61;100.00
25238;BME280;13185;50.872;5.306;2023-02-04T07:11:00;103177.22;;;6.60;100.00
25238;BME280;13185;50.872;5.306;2023-02-04T07:13:26;103181.63;;;6.61;100.00
25238;BME280;13185;50.872;5.306;2023-02-04T07:15:51;103186.97;;;6.61;100.00
25238;BME280;13185;50.872;5.306;2023-02-04T07:18:17;103190.53;;;6.60;100.00
25238;BME280;13185;50.872;5.306;2023-02-04T07:20:46;103199.44;;;6.59;100.00
25238;BME280;13185;50.872;5.306;2023-02-04T07:23:12;103200.31;;;6.60;100.00
25238;BME280;13185;50.872;5.306;2023-02-04T07:25:37;103207.41;;;6.62;100.00
25238;BME280;13185;50.872;5.306;2023-02-04T07:28:06;103210.03;;;6.64;100.00
25238;BME280;13185;50.872;5.306;2023-02-04T07:30:31;103211.78;;;6.66;100.00
25238;BME280;13185;50.872;5.306;2023-02-04T07:32:57;103221.56;;;6.69;100.00
25238;BME280;13185;50.872;5.306;2023-02-04T07:35:22;103225.94;;;6.73;100.00
25238;BME280;13185;50.872;5.306;2023-02-04T07:37:48;103228.56;;;6.76;100.00
25238;BME280;13185;50.872;5.306;2023-02-04T07:40:14;103233.00;;;6.79;100.00
25238;BME280;13185;50.872;5.306;2023-02-04T07:42:40;103233.84;;;6.82;100.00
25238;BME280;13185;50.872;5.306;2023-02-04T07:45:10;103239.13;;;6.87;100.00
25238;BME280;13185;50.872;5.306;2023-02-04T07:47:36;103238.22;;;6.89;100.00
25238;BME280;13185;50.872;5.306;2023-02-04T07:50:01;103239.94;;;6.93;100.00
25238;BME280;13185;50.872;5.306;2023-02-04T07:52:27;103230.13;;;6.95;100.00
25238;BME280;13185;50.872;5.306;2023-02-04T07:54:52;103238.97;;;6.98;100.00
25238;BME280;13185;50.872;5.306;2023-02-04T07:57:18;103234.53;;;7.00;100.00
25238;BME280;13185;50.872;5.306;2023-02-04T07:59:44;103238.91;;;7.05;100.00
25238;BME280;13185;50.872;5.306;2023-02-04T08:02:12;103239.75;;;7.07;100.00
25238;BME280;13185;50.872;5.306;2023-02-04T08:04:37;103246.88;;;7.10;100.00
25238;BME280;13185;50.872;5.306;2023-02-04T08:07:03;103244.19;;;7.11;100.00
25238;BME280;13185;50.872;5.306;2023-02-04T08:09:29;103248.59;;;7.14;100.00
25238;BME280;13185;50.872;5.306;2023-02-04T08:11:54;103247.69;;;7.15;100.00
25238;BME280;13185;50.872;5.306;2023-02-04T08:14:20;103245.88;;;7.15;100.00
25238;BME280;13185;50.872;5.306;2023-02-04T08:16:46;103258.31;;;7.16;100.00
25238;BME280;13185;50.872;5.306;2023-02-04T08:19:11;103250.31;;;7.19;100.00
25238;BME280;13185;50.872;5.306;2023-02-04T08:21:44;103257.38;;;7.22;100.00
25238;BME280;13185;50.872;5.306;2023-02-04T08:24:11;103254.72;;;7.22;100.00
25238;BME280;13185;50.872;5.306;2023-02-04T08:26:37;103254.66;;;7.25;100.00
25238;BME280;13185;50.872;5.306;2023-02-04T08:29:02;103257.28;;;7.30;100.00
25238;BME280;13185;50.872;5.306;2023-02-04T08:31:28;103259.00;;;7.34;100.00
25238;BME280;13185;50.872;5.306;2023-02-04T08:33:53;103255.44;;;7.35;100.00
25238;BME280;13185;50.872;5.306;2023-02-04T08:36:19;103252.72;;;7.38;100.00
25238;BME280;13185;50.872;5.306;2023-02-04T08:38:44;103253.56;;;7.41;100.00
25238;BME280;13185;50.872;5.306;2023-02-04T08:41:10;103259.78;;;7.43;100.00
25238;BME280;13185;50.872;5.306;2023-02-04T08:43:35;103263.28;;;7.45;100.00
25238;BME280;13185;50.872;5.306;2023-02-04T08:46:01;103267.69;;;7.48;100.00
25238;BME280;13185;50.872;5.306;2023-02-04T08:48:27;103267.63;;;7.54;100.00
25238;BME280;13185;50.872;5.306;2023-02-04T08:50:52;103279.13;;;7.59;100.00
25238;BME280;13185;50.872;5.306;2023-02-04T08:53:17;103272.78;;;7.66;100.00
25238;BME280;13185;50.872;5.306;2023-02-04T08:55:43;103268.22;;;7.74;100.00
25238;BME280;13185;50.872;5.306;2023-02-04T08:58:08;103274.34;;;7.81;100.00
25238;BME280;13185;50.872;5.306;2023-02-04T09:00:34;103276.03;;;7.88;100.00
25238;BME280;13185;50.872;5.306;2023-02-04T09:02:59;103276.84;;;7.93;100.00
25238;BME280;13185;50.872;5.306;2023-02-04T09:05:25;103281.22;;;7.99;100.00
25238;BME280;13185;50.872;5.306;2023-02-04T09:07:50;103285.63;;;8.01;100.00
25238;BME280;13185;50.872;5.306;2023-02-04T09:10:18;103288.22;;;8.07;100.00
25238;BME280;13185;50.872;5.306;2023-02-04T09:12:44;103289.00;;;8.13;100.00
25238;BME280;13185;50.872;5.306;2023-02-04T09:15:10;103286.25;;;8.19;100.00
25238;BME280;13185;50.872;5.306;2023-02-04T09:17:36;103294.19;;;8.22;100.00
25238;BME280;13185;50.872;5.306;2023-02-04T09:20:02;103285.28;;;8.23;100.00
25238;BME280;13185;50.872;5.306;2023-02-04T09:22:30;103287.06;;;8.24;100.00
25238;BME280;13185;50.872;5.306;2023-02-04T09:24:56;103288.84;;;8.23;100.00
25238;BME280;13185;50.872;5.306;2023-02-04T09:27:24;103282.59;;;8.24;100.00
25238;BME280;13185;50.872;5.306;2023-02-04T09:29:49;103295.91;;;8.27;100.00
25238;BME280;13185;50.872;5.306;2023-02-04T09:32:17;103293.19;;;8.29;100.00
25238;BME280;13185;50.872;5.306;2023-02-04T09:34:43;103295.78;;;8.33;100.00
25238;BME280;13185;50.872;5.306;2023-02-04T09:37:08;103298.50;;;8.35;100.00
25238;BME280;13185;50.872;5.306;2023-02-04T09:39:33;103302.91;;;8.37;100.00
25238;BME280;13185;50.872;5.306;2023-02-04T09:41:59;103296.63;;;8.38;100.00
25238;BME280;13185;50.872;5.306;2023-02-04T09:44:25;103296.53;;;8.46;100.00
25238;BME280;13185;50.872;5.306;2023-02-04T09:46:54;103291.91;;;8.56;100.00
25238;BME280;13185;50.872;5.306;2023-02-04T09:49:20;103293.50;;;8.64;100.00
25238;BME280;13185;50.872;5.306;2023-02-04T09:51:49;103295.97;;;8.75;100.00
25238;BME280;13185;50.872;5.306;2023-02-04T09:54:17;103301.19;;;8.83;100.00
25238;BME280;13185;50.872;5.306;2023-02-04T09:56:43;103294.00;;;8.85;100.00
25238;BME280;13185;50.872;5.306;2023-02-04T09:59:17;103303.84;;;8.86;100.00
25238;BME280;13185;50.872;5.306;2023-02-04T10:01:46;103301.06;;;8.90;100.00
25238;BME280;13185;50.872;5.306;2023-02-04T10:04:13;103303.63;;;8.96;100.00
25238;BME280;13185;50.872;5.306;2023-02-04T10:06:41;103308.88;;;9.01;100.00
25238;BME280;13185;50.872;5.306;2023-02-04T10:09:10;103313.25;;;9.05;100.00
25238;BME280;13185;50.872;5.306;2023-02-04T10:11:37;103312.34;;;9.06;100.00
25238;BME280;13185;50.872;5.306;2023-02-04T10:14:05;103315.94;;;9.07;100.00
25238;BME280;13185;50.872;5.306;2023-02-04T10:16:34;103320.31;;;9.09;100.00
25238;BME280;13185;50.872;5.306;2023-02-04T10:19:05;103324.72;;;9.12;100.00
25238;BME280;13185;50.872;5.306;2023-02-04T10:21:38;103318.53;;;9.10;100.00
25238;BME280;13185;50.872;5.306;2023-02-04T10:24:13;103321.22;;;9.10;100.00
25238;BME280;13185;50.872;5.306;2023-02-04T10:26:40;103316.69;;;9.12;100.00
25238;BME280;13185;50.872;5.306;2023-02-04T10:29:18;103321.03;;;9.19;100.00
25238;BME280;13185;50.872;5.306;2023-02-04T10:31:46;103323.53;;;9.26;100.00
25238;BME280;13185;50.872;5.306;2023-02-04T10:34:16;103323.38;;;9.34;100.00
25238;BME280;13185;50.872;5.306;2023-02-04T10:36:47;103327.75;;;9.40;100.00
25238;BME280;13185;50.872;5.306;2023-02-04T10:39:20;103324.13;;;9.42;100.00
25238;BME280;13185;50.872;5.306;2023-02-04T10:49:25;103333.66;;;9.55;100.00
25238;BME280;13185;50.872;5.306;2023-02-04T10:51:51;103336.09;;;9.66;100.00
25238;BME280;13185;50.872;5.306;2023-02-04T10:54:20;103326.97;;;9.75;100.00
25238;BME280;13185;50.872;5.306;2023-02-04T10:57:27;103325.97;;;9.79;100.00
25238;BME280;13185;50.872;5.306;2023-02-04T10:59:58;103334.91;;;9.81;100.00
25238;BME280;13185;50.872;5.306;2023-02-04T11:03:03;103337.50;;;9.84;100.00
25238;BME280;13185;50.872;5.306;2023-02-04T11:05:32;103332.91;;;9.89;100.00
25238;BME280;13185;50.872;5.306;2023-02-04T11:07:58;103341.78;;;9.93;100.00
25238;BME280;13185;50.872;5.306;2023-02-04T11:10:29;103332.72;;;9.97;100.00
25238;BME280;13185;50.872;5.306;2023-02-04T11:20:50;103339.19;;;9.88;100.00
25238;BME280;13185;50.872;5.306;2023-02-04T11:26:01;103334.91;;;9.81;100.00
25238;BME280;13185;50.872;5.306;2023-02-04T11:28:27;103337.53;;;9.82;100.00
25238;BME280;13185;50.872;5.306;2023-02-04T11:31:00;103342.81;;;9.86;100.00
25238;BME280;13185;50.872;5.306;2023-02-04T11:33:32;103331.13;;;9.88;100.00
25238;BME280;13185;50.872;5.306;2023-02-04T11:36:02;103336.50;;;9.88;100.00
25238;BME280;13185;50.872;5.306;2023-02-04T11:38:30;103340.94;;;9.91;100.00
25238;BME280;13185;50.872;5.306;2023-02-04T11:40:58;103343.56;;;9.92;100.00
25238;BME280;13185;50.872;5.306;2023-02-04T11:43:25;103338.25;;;9.91;100.00
25238;BME280;13185;50.872;5.306;2023-02-04T11:46:03;103335.53;;;9.92;100.00
25238;BME280;13185;50.872;5.306;2023-02-04T11:48:30;103331.00;;;9.94;100.00
25238;BME280;13185;50.872;5.306;2023-02-04T11:50:58;103330.94;;;9.97;100.00
25238;BME280;13185;50.872;5.306;2023-02-04T11:53:29;103326.53;;;9.95;100.00
25238;BME280;13185;50.872;5.306;2023-02-04T11:56:03;103330.13;;;9.94;100.00
25238;BME280;13185;50.872;5.306;2023-02-04T11:58:30;103332.00;;;9.90;100.00
25238;BME280;13185;50.872;5.306;2023-02-04T12:00:55;103331.22;;;9.85;100.00
25238;BME280;13185;50.872;5.306;2023-02-04T12:05:48;103336.50;;;9.88;100.00
25238;BME280;13185;50.872;5.306;2023-02-04T12:08:34;103339.22;;;9.87;100.00
25238;BME280;13185;50.872;5.306;2023-02-04T12:11:07;103350.06;;;9.82;100.00
25238;BME280;13185;50.872;5.306;2023-02-04T12:13:49;103341.22;;;9.77;100.00
25238;BME280;13185;50.872;5.306;2023-02-04T12:16:16;103351.06;;;9.76;100.00
25238;BME280;13185;50.872;5.306;2023-02-04T12:18:42;103348.38;;;9.76;100.00
25238;BME280;13185;50.872;5.306;2023-02-04T12:21:07;103342.19;;;9.74;100.00
25238;BME280;13185;50.872;5.306;2023-02-04T12:23:32;103344.81;;;9.76;100.00
25238;BME280;13185;50.872;5.306;2023-02-04T12:25:58;103343.03;;;9.76;100.00
25238;BME280;13185;50.872;5.306;2023-02-04T12:28:24;103340.41;;;9.73;100.00
25238;BME280;13185;50.872;5.306;2023-02-04T12:30:52;103342.25;;;9.71;100.00
25238;BME280;13185;50.872;5.306;2023-02-04T12:33:17;103338.75;;;9.68;100.00
25238;BME280;13185;50.872;5.306;2023-02-04T12:35:43;103331.63;;;9.67;100.00
25238;BME280;13185;50.872;5.306;2023-02-04T12:38:09;103343.22;;;9.67;100.00
25238;BME280;13185;50.872;5.306;2023-02-04T12:40:35;103346.78;;;9.68;100.00
25238;BME280;13185;50.872;5.306;2023-02-04T12:43:00;103349.44;;;9.68;100.00
25238;BME280;13185;50.872;5.306;2023-02-04T12:45:26;103351.22;;;9.69;100.00
25238;BME280;13185;50.872;5.306;2023-02-04T12:47:51;103351.22;;;9.69;100.00
25238;BME280;13185;50.872;5.306;2023-02-04T12:50:19;103348.63;;;9.66;100.00
25238;BME280;13185;50.872;5.306;2023-02-04T12:52:52;103358.56;;;9.61;100.00
25238;BME280;13185;50.872;5.306;2023-02-04T12:55:18;103346.16;;;9.55;100.00
25238;BME280;13185;50.872;5.306;2023-02-04T12:57:44;103348.91;;;9.52;100.00
25238;BME280;13185;50.872;5.306;2023-02-04T13:00:11;103346.25;;;9.52;100.00
25238;BME280;13185;50.872;5.306;2023-02-04T13:02:37;103346.31;;;9.47;100.00
25238;BME280;13185;50.872;5.306;2023-02-04T13:05:03;103351.75;;;9.44;100.00
25238;BME280;13185;50.872;5.306;2023-02-04T13:07:28;103347.25;;;9.45;100.00
25238;BME280;13185;50.872;5.306;2023-02-04T13:09:56;103346.41;;;9.43;100.00
25238;BME280;13185;50.872;5.306;2023-02-04T13:12:22;103343.78;;;9.41;100.00
25238;BME280;13185;50.872;5.306;2023-02-04T13:14:53;103335.75;;;9.41;100.00